Time;durP1;ratioP1;P1;durP2;ratioP2;P2;SDS_P1;SDS_P2;PMS_P1;PMS_P2;Temp;Humidity;BMP_temperature;BMP_pressure;BME280_temperature;BME280_humidity;BME280_pressure;Samples;Min_cycle;Max_cycle;Signal;HPM_P1;HPM_P2
2023/06/07 13:53:46;;;;;;;9.75;3.90;;;29.00;57.70;;;;;;5097556;22;20814;-81
2023/06/07 13:56:12;;;;;;;7.40;3.88;;;28.90;57.60;;;;;;5135128;27;20445;-83
2023/06/07 13:58:39;;;;;;;7.53;3.65;;;29.00;57.50;;;;;;5134132;27;20106;-80
2023/06/07 14:01:05;;;;;;;8.73;3.60;;;28.90;57.40;;;;;;5115965;28;20031;-80
2023/06/07 14:03:31;;;;;;;9.40;3.47;;;28.90;57.40;;;;;;5134249;28;20031;-80
2023/06/07 14:05:58;;;;;;;9.43;3.75;;;29.00;57.20;;;;;;5116373;28;20059;-80
2023/06/07 14:08:25;;;;;;;6.82;3.72;;;29.00;57.10;;;;;;5134306;28;20038;-81
2023/06/07 14:10:51;;;;;;;6.88;3.45;;;28.90;56.90;;;;;;5134279;28;20058;-80
2023/06/07 14:13:17;;;;;;;7.72;3.50;;;28.90;56.60;;;;;;5141452;28;20499;-80
2023/06/07 14:15:44;;;;;;;10.50;5.32;;;29.00;56.70;;;;;;5136626;28;20031;-80
2023/06/07 14:18:10;;;;;;;8.30;3.55;;;29.00;56.00;;;;;;5133674;28;20500;-82
2023/06/07 14:20:36;;;;;;;10.43;3.60;;;29.10;56.50;;;;;;5115102;28;20115;-80
2023/06/07 14:23:01;;;;;;;7.05;3.20;;;29.10;55.70;;;;;;5133429;28;20031;-83
2023/06/07 14:25:27;;;;;;;6.65;3.50;;;29.10;55.20;;;;;;5132836;28;20404;-80
2023/06/07 14:27:53;;;;;;;8.77;3.17;;;29.10;55.60;;;;;;5114884;28;20035;-81
2023/06/07 14:30:18;;;;;;;9.82;3.38;;;29.10;55.50;;;;;;5133363;28;20043;-81
2023/06/07 14:32:44;;;;;;;7.00;3.30;;;29.00;55.80;;;;;;5133119;28;20613;-80
2023/06/07 14:35:10;;;;;;;9.45;3.58;;;29.00;55.90;;;;;;5133188;28;20160;-81
2023/06/07 14:37:35;;;;;;;7.40;3.25;;;29.00;56.00;;;;;;5133147;28;20031;-82
2023/06/07 14:40:03;;;;;;;7.13;3.17;;;29.00;56.00;;;;;;5133002;28;20027;-82
2023/06/07 14:42:28;;;;;;;6.60;3.00;;;28.90;55.80;;;;;;5132951;28;20032;-81
2023/06/07 14:44:55;;;;;;;10.45;3.35;;;28.90;56.10;;;;;;5132703;28;20047;-81
2023/06/07 14:47:21;;;;;;;12.48;3.60;;;28.90;56.30;;;;;;5137596;28;20433;-81
2023/06/07 14:49:47;;;;;;;11.02;3.35;;;28.90;56.20;;;;;;5122233;28;20492;-80
2023/06/07 14:52:12;;;;;;;6.95;3.17;;;28.90;55.80;;;;;;5134035;28;20144;-80
2023/06/07 14:54:38;;;;;;;6.32;3.10;;;28.90;55.70;;;;;;5133315;28;20392;-80
2023/06/07 14:57:05;;;;;;;10.48;3.30;;;28.90;55.70;;;;;;5134463;27;20110;-81
2023/06/07 14:59:31;;;;;;;7.25;3.30;;;28.90;55.60;;;;;;5136728;27;20024;-80
2023/06/07 15:01:56;;;;;;;8.88;3.20;;;28.90;55.70;;;;;;5136175;27;20031;-80
2023/06/07 15:04:22;;;;;;;6.30;3.10;;;28.90;55.70;;;;;;5136538;27;20055;-80
2023/06/07 15:06:48;;;;;;;8.43;3.20;;;28.90;55.40;;;;;;5136637;27;20023;-82
2023/06/07 15:09:13;;;;;;;8.35;3.65;;;28.90;56.30;;;;;;5137010;27;20083;-80
2023/06/07 15:11:39;;;;;;;10.18;3.45;;;28.80;55.40;;;;;;5136120;27;20102;-80
2023/06/07 15:14:05;;;;;;;9.40;3.70;;;28.80;55.90;;;;;;5119580;27;20509;-79
2023/06/07 15:16:30;;;;;;;8.73;3.85;;;28.80;55.80;;;;;;5138449;27;20042;-82
2023/06/07 15:18:56;;;;;;;9.30;2.90;;;28.80;55.60;;;;;;5136415;27;20136;-80
2023/06/07 15:21:22;;;;;;;6.78;3.15;;;28.70;55.20;;;;;;5136510;27;20032;-81
2023/06/07 15:23:48;;;;;;;6.95;3.05;;;28.60;55.40;;;;;;5136368;27;20483;-81
2023/06/07 15:26:16;;;;;;;4.82;2.90;;;28.70;55.50;;;;;;5136669;27;20027;-80
2023/06/07 15:28:41;;;;;;;10.77;3.53;;;28.70;55.50;;;;;;5136539;27;20488;-80
2023/06/07 15:31:09;;;;;;;9.15;3.47;;;28.60;55.80;;;;;;5136209;27;20027;-80
2023/06/07 15:33:34;;;;;;;7.07;3.03;;;28.60;55.90;;;;;;5136922;27;20512;-82
2023/06/07 15:36:00;;;;;;;5.35;3.03;;;28.50;55.70;;;;;;5137091;27;20099;-81
2023/06/07 15:38:26;;;;;;;7.28;3.00;;;28.50;55.70;;;;;;5136605;27;20341;-80
2023/06/07 15:40:51;;;;;;;7.20;3.20;;;28.40;55.50;;;;;;5136301;27;20058;-79
2023/06/07 15:43:17;;;;;;;7.90;3.65;;;28.30;55.70;;;;;;5136551;27;20063;-80
2023/06/07 15:45:43;;;;;;;6.13;3.20;;;28.40;55.50;;;;;;5136008;27;20559;-79
2023/06/07 15:48:08;;;;;;;5.72;3.00;;;28.40;55.50;;;;;;5121237;27;20042;-79
2023/06/07 15:50:34;;;;;;;7.75;3.05;;;28.40;55.60;;;;;;5140668;27;20087;-80
2023/06/07 15:53:02;;;;;;;7.10;3.15;;;28.40;55.70;;;;;;5118043;27;20080;-80
2023/06/07 15:55:28;;;;;;;5.85;2.75;;;28.40;55.60;;;;;;5141835;27;20349;-79
2023/06/07 15:57:54;;;;;;;6.03;2.60;;;28.30;55.30;;;;;;5135988;27;20038;-81
2023/06/07 16:00:20;;;;;;;7.93;2.70;;;28.10;54.70;;;;;;5135780;27;20070;-80
2023/06/07 16:02:46;;;;;;;5.53;2.67;;;28.00;54.80;;;;;;5135541;27;20042;-80
2023/06/07 16:05:12;;;;;;;6.05;2.70;;;28.00;55.20;;;;;;5135037;27;20035;-80
2023/06/07 16:07:37;;;;;;;6.97;2.85;;;28.10;54.80;;;;;;5135175;27;20031;-82
2023/06/07 16:10:04;;;;;;;5.38;2.95;;;28.10;55.30;;;;;;5134791;27;20423;-79
2023/06/07 16:12:30;;;;;;;7.70;2.97;;;28.10;55.30;;;;;;5134774;27;20058;-80
2023/06/07 16:14:56;;;;;;;5.13;2.72;;;28.20;55.10;;;;;;5135168;27;20031;-81
2023/06/07 16:17:22;;;;;;;8.15;3.25;;;28.20;55.10;;;;;;5135459;27;20031;-78
2023/06/07 16:19:47;;;;;;;8.35;2.88;;;28.20;54.90;;;;;;5135029;27;20491;-81
2023/06/07 16:22:14;;;;;;;7.22;2.97;;;28.20;55.00;;;;;;5134913;27;20055;-80
2023/06/07 16:24:40;;;;;;;7.95;3.40;;;28.20;55.10;;;;;;5134372;27;20047;-80
2023/06/07 16:27:06;;;;;;;8.05;2.97;;;28.20;54.90;;;;;;5134521;27;20031;-80
2023/06/07 16:29:31;;;;;;;5.22;2.60;;;28.10;54.80;;;;;;5134946;27;20039;-83
2023/06/07 16:31:57;;;;;;;8.07;2.88;;;28.10;54.40;;;;;;5134717;27;20059;-80
2023/06/07 16:34:23;;;;;;;6.38;2.70;;;28.10;54.20;;;;;;5134444;27;20026;-81
2023/06/07 16:36:48;;;;;;;5.30;2.50;;;28.00;54.50;;;;;;5134721;27;20031;-80
2023/06/07 16:39:14;;;;;;;4.63;2.60;;;28.00;54.60;;;;;;5134595;27;20035;-82
2023/06/07 16:41:42;;;;;;;8.82;2.78;;;28.00;55.00;;;;;;5134698;27;20068;-81
2023/06/07 16:44:10;;;;;;;6.78;2.70;;;28.00;54.90;;;;;;5135025;27;20039;-82
2023/06/07 16:46:36;;;;;;;5.63;2.70;;;28.00;54.70;;;;;;5135076;27;20045;-79
2023/06/07 16:49:02;;;;;;;5.55;2.65;;;28.00;54.60;;;;;;5126367;27;20031;-82
2023/06/07 16:51:28;;;;;;;4.78;2.67;;;28.00;54.70;;;;;;5117426;27;20605;-82
2023/06/07 16:53:53;;;;;;;8.02;2.83;;;28.00;54.90;;;;;;5135213;27;20054;-81
2023/06/07 16:56:19;;;;;;;5.82;3.05;;;27.80;54.90;;;;;;5134980;27;20035;-81
2023/06/07 16:58:45;;;;;;;6.32;2.75;;;27.80;55.10;;;;;;5135004;27;20038;-81
2023/06/07 17:01:12;;;;;;;6.22;2.47;;;27.80;54.90;;;;;;5135019;27;20046;-81
2023/06/07 17:03:38;;;;;;;3.53;2.40;;;27.80;55.40;;;;;;5134954;27;20046;-80
2023/06/07 17:06:05;;;;;;;6.95;2.72;;;27.80;55.60;;;;;;5134616;27;20427;-81
2023/06/07 17:08:31;;;;;;;9.88;3.20;;;27.80;55.90;;;;;;5134792;27;20118;-80
2023/06/07 17:10:56;;;;;;;6.38;3.13;;;27.70;56.10;;;;;;5116607;27;20063;-81
2023/06/07 17:13:22;;;;;;;5.03;2.60;;;27.60;56.50;;;;;;5135043;27;20031;-79
2023/06/07 17:15:49;;;;;;;6.18;2.47;;;27.60;56.80;;;;;;5135541;27;20160;-81
2023/06/07 17:18:15;;;;;;;7.35;2.90;;;27.60;56.60;;;;;;5115673;27;20039;-80
2023/06/07 17:20:41;;;;;;;6.95;3.15;;;27.50;56.70;;;;;;5134041;27;20031;-79
2023/06/07 17:23:07;;;;;;;5.65;3.08;;;27.50;56.80;;;;;;5134687;27;20114;-81
2023/06/07 17:25:34;;;;;;;6.90;2.63;;;27.40;56.80;;;;;;5115709;27;20063;-79
2023/06/07 17:28:01;;;;;;;6.70;3.03;;;27.40;56.90;;;;;;5134233;27;20485;-80
2023/06/07 17:30:28;;;;;;;5.43;2.70;;;27.30;56.80;;;;;;5133785;27;20045;-81
2023/06/07 17:32:54;;;;;;;5.97;2.70;;;27.20;57.10;;;;;;5115521;27;20034;-82
2023/06/07 17:35:20;;;;;;;6.65;3.10;;;27.20;57.40;;;;;;5137949;27;20035;-80
2023/06/07 17:37:45;;;;;;;7.07;3.03;;;27.10;57.60;;;;;;5140150;27;20047;-80
2023/06/07 17:40:12;;;;;;;6.70;2.80;;;27.10;57.70;;;;;;5134571;27;20039;-80
2023/06/07 17:42:37;;;;;;;8.02;2.92;;;27.00;57.70;;;;;;5134676;27;20027;-79
2023/06/07 17:45:04;;;;;;;7.38;3.30;;;26.90;57.80;;;;;;5138164;27;20046;-80
2023/06/07 17:47:48;;;;;;;8.40;2.60;;;26.80;57.90;;;;;;5137891;27;20031;-80
2023/06/07 17:50:14;;;;;;;4.90;2.63;;;26.80;57.70;;;;;;5139518;27;20031;-81
2023/06/07 17:52:40;;;;;;;8.20;2.95;;;26.80;58.50;;;;;;5134724;27;20137;-81
2023/06/07 17:55:06;;;;;;;6.53;2.95;;;26.70;58.70;;;;;;5114818;27;20043;-80
2023/06/07 17:57:35;;;;;;;8.40;3.00;;;26.70;59.10;;;;;;5133375;27;20392;-80
2023/06/07 18:00:01;;;;;;;7.50;3.03;;;26.70;58.80;;;;;;5133546;27;20027;-79
2023/06/07 18:02:26;;;;;;;11.05;3.28;;;26.70;59.60;;;;;;5133600;28;20035;-82
2023/06/07 18:04:52;;;;;;;5.07;3.38;;;26.70;59.80;;;;;;5114974;28;20043;-82
2023/06/07 18:07:18;;;;;;;6.93;3.55;;;26.70;59.80;;;;;;5133340;28;20110;-80
2023/06/07 18:09:45;;;;;;;5.90;2.70;;;26.60;60.00;;;;;;5133031;28;20445;-79
2023/06/07 18:12:11;;;;;;;7.13;2.95;;;26.60;60.00;;;;;;5134766;28;20496;-80
2023/06/07 18:14:36;;;;;;;8.27;2.92;;;26.50;60.20;;;;;;5133383;28;20079;-81
2023/06/07 18:17:02;;;;;;;9.10;3.75;;;26.50;60.30;;;;;;5133246;28;20430;-81
2023/06/07 18:19:28;;;;;;;7.00;3.35;;;26.40;60.50;;;;;;5133202;28;20529;-80
2023/06/07 18:21:56;;;;;;;5.32;2.70;;;26.30;60.70;;;;;;5133361;28;20042;-80
2023/06/07 18:24:24;;;;;;;8.18;3.08;;;26.30;61.00;;;;;;5133377;28;20043;-80
2023/06/07 18:26:50;;;;;;;9.23;3.40;;;26.30;61.20;;;;;;5133130;28;20310;-80
2023/06/07 18:29:16;;;;;;;9.48;3.35;;;26.30;61.20;;;;;;5133081;28;20035;-81
2023/06/07 18:31:42;;;;;;;6.68;3.83;;;26.20;61.60;;;;;;5134827;27;20051;-81
2023/06/07 18:34:07;;;;;;;7.68;3.60;;;26.20;61.40;;;;;;5137246;27;20107;-82
2023/06/07 18:36:33;;;;;;;7.13;3.80;;;26.10;61.50;;;;;;5137357;27;20093;-81
2023/06/07 18:38:59;;;;;;;8.82;3.70;;;26.10;62.30;;;;;;5137418;27;20093;-81
2023/06/07 18:41:25;;;;;;;6.15;3.45;;;26.10;62.60;;;;;;5137970;27;20023;-81
2023/06/07 18:43:51;;;;;;;8.88;3.92;;;26.00;62.90;;;;;;5136850;27;20071;-81
2023/06/07 18:46:17;;;;;;;8.38;4.15;;;25.90;63.20;;;;;;5137369;27;20058;-80
2023/06/07 18:48:43;;;;;;;7.05;3.72;;;25.90;63.50;;;;;;5150192;27;20473;-78
2023/06/07 18:51:09;;;;;;;6.43;3.30;;;25.80;63.90;;;;;;5138741;27;20039;-80
2023/06/07 18:53:36;;;;;;;6.28;3.50;;;25.80;64.50;;;;;;5137390;27;20038;-79
2023/06/07 18:56:04;;;;;;;9.82;3.50;;;25.80;64.80;;;;;;5136485;27;20381;-79
2023/06/07 18:58:30;;;;;;;9.88;4.13;;;25.80;64.90;;;;;;5118498;27;20086;-81
2023/06/07 19:00:56;;;;;;;6.32;3.50;;;25.70;65.60;;;;;;5136561;27;20035;-81
2023/06/07 19:03:22;;;;;;;8.55;4.05;;;25.70;65.90;;;;;;5136422;27;20020;-80
2023/06/07 19:05:47;;;;;;;10.50;4.45;;;25.60;66.60;;;;;;5136910;27;20066;-83
2023/06/07 19:08:13;;;;;;;14.00;8.85;;;25.60;67.30;;;;;;5137114;27;20111;-81
2023/06/07 19:10:39;;;;;;;17.00;9.75;;;25.50;67.30;;;;;;5136758;27;20037;-80
2023/06/07 19:13:04;;;;;;;12.20;5.25;;;25.50;67.60;;;;;;5136897;27;20054;-80
2023/06/07 19:15:30;;;;;;;9.50;4.28;;;25.50;68.10;;;;;;5136806;27;20561;-81
2023/06/07 19:17:56;;;;;;;8.43;3.85;;;25.50;68.30;;;;;;5141536;27;20031;-81
2023/06/07 19:20:22;;;;;;;8.20;4.80;;;25.40;68.00;;;;;;5126602;27;20091;-81
2023/06/07 19:22:47;;;;;;;9.55;6.47;;;25.40;68.40;;;;;;5118179;27;20027;-81
2023/06/07 19:25:13;;;;;;;22.67;16.52;;;25.30;68.40;;;;;;5136375;27;20428;-81
2023/06/07 19:27:41;;;;;;;11.07;4.90;;;25.30;68.50;;;;;;5136632;27;20036;-81
2023/06/07 19:30:07;;;;;;;12.05;4.50;;;25.30;68.90;;;;;;5136349;27;20038;-82
2023/06/07 19:32:33;;;;;;;9.20;3.80;;;25.30;68.70;;;;;;5136122;27;20027;-82
2023/06/07 19:35:03;;;;;;;9.80;4.50;;;25.20;69.10;;;;;;5135798;27;20100;-82
2023/06/07 19:37:28;;;;;;;8.55;4.00;;;25.20;69.20;;;;;;5117374;27;20119;-81
2023/06/07 19:39:54;;;;;;;8.05;4.20;;;25.10;69.60;;;;;;5135725;27;20456;-82
2023/06/07 19:42:20;;;;;;;6.82;4.38;;;25.10;69.90;;;;;;5135474;27;20414;-80
2023/06/07 19:44:46;;;;;;;8.20;4.70;;;25.00;69.80;;;;;;5135079;27;20138;-80
2023/06/07 19:47:12;;;;;;;8.20;4.35;;;25.00;70.20;;;;;;5135541;27;20058;-81
2023/06/07 19:49:38;;;;;;;8.60;4.50;;;25.00;70.30;;;;;;5138214;27;20039;-81
2023/06/07 19:52:05;;;;;;;10.48;4.25;;;24.90;70.40;;;;;;5136195;27;20031;-83
2023/06/07 19:54:32;;;;;;;7.43;4.10;;;24.90;70.70;;;;;;5135094;27;20095;-82
2023/06/07 19:56:58;;;;;;;8.57;3.90;;;24.90;70.80;;;;;;5135388;27;20114;-81
2023/06/07 19:59:24;;;;;;;7.72;4.20;;;24.90;71.00;;;;;;5116598;27;20067;-81
2023/06/07 20:01:50;;;;;;;9.98;4.00;;;24.90;71.10;;;;;;5134935;27;20016;-80
2023/06/07 20:04:16;;;;;;;10.00;3.83;;;24.90;71.40;;;;;;5135740;27;20127;-81
2023/06/07 20:06:43;;;;;;;9.85;4.28;;;24.90;71.30;;;;;;5135349;27;20041;-83
2023/06/07 20:09:08;;;;;;;10.65;4.57;;;24.80;71.80;;;;;;5135082;27;20431;-78
2023/06/07 20:11:35;;;;;;;8.18;4.22;;;24.80;71.80;;;;;;5110931;27;20038;-77
2023/06/07 20:14:01;;;;;;;7.95;4.45;;;24.80;71.90;;;;;;5127227;27;20389;-78
2023/06/07 20:16:27;;;;;;;10.75;5.22;;;24.80;72.20;;;;;;5134101;27;20066;-75
2023/06/07 20:18:52;;;;;;;11.10;4.97;;;24.80;72.10;;;;;;5115919;27;20120;-75
2023/06/07 20:21:18;;;;;;;11.93;5.13;;;24.80;72.40;;;;;;5134588;27;20032;-75
2023/06/07 20:23:44;;;;;;;9.48;5.60;;;24.70;72.60;;;;;;5134365;27;20099;-77
2023/06/07 20:26:09;;;;;;;9.88;4.70;;;24.70;72.60;;;;;;5134194;27;20500;-77
2023/06/07 20:28:35;;;;;;;8.20;4.78;;;24.60;73.20;;;;;;5134196;27;20114;-77
2023/06/07 20:31:04;;;;;;;8.20;4.60;;;24.60;72.90;;;;;;5134109;27;20407;-76
2023/06/07 20:33:32;;;;;;;7.70;4.55;;;24.60;73.60;;;;;;5133719;27;20024;-76
2023/06/07 20:35:58;;;;;;;9.65;5.03;;;24.50;73.00;;;;;;5133559;27;20115;-77
2023/06/07 20:38:24;;;;;;;9.05;5.07;;;24.50;73.10;;;;;;5133804;27;20106;-77
2023/06/07 20:40:50;;;;;;;8.25;5.03;;;24.40;73.40;;;;;;5132968;27;20082;-77
2023/06/07 20:43:15;;;;;;;8.55;4.90;;;24.40;73.40;;;;;;5133187;27;20035;-76
2023/06/07 20:45:41;;;;;;;7.93;5.00;;;24.40;73.50;;;;;;5133329;27;20047;-76
2023/06/07 20:48:07;;;;;;;8.18;5.50;;;24.40;73.70;;;;;;5133468;27;20047;-76
2023/06/07 20:50:33;;;;;;;9.95;5.00;;;24.40;73.70;;;;;;5133805;27;20121;-76
2023/06/07 20:52:59;;;;;;;13.27;6.00;;;24.40;73.60;;;;;;5133616;27;20027;-75
2023/06/07 20:55:32;;;;;;;10.60;5.75;;;24.40;73.80;;;;;;5131829;27;20051;-79
2023/06/07 20:57:57;;;;;;;9.00;5.27;;;24.30;74.00;;;;;;5133558;27;20035;-76
2023/06/07 21:00:23;;;;;;;8.48;5.30;;;24.30;73.70;;;;;;5133569;27;20039;-79
2023/06/07 21:02:48;;;;;;;10.00;5.35;;;24.30;74.10;;;;;;5133393;27;20036;-75
2023/06/07 21:05:15;;;;;;;12.35;5.07;;;24.30;74.20;;;;;;5133234;27;20035;-75
2023/06/07 21:07:40;;;;;;;7.30;5.13;;;24.30;74.40;;;;;;5133161;27;20076;-76
2023/06/07 21:10:06;;;;;;;9.30;5.07;;;24.30;74.70;;;;;;5133067;27;20034;-75
2023/06/07 21:12:32;;;;;;;10.68;5.50;;;24.20;74.60;;;;;;5132951;27;20034;-76
2023/06/07 21:14:58;;;;;;;8.88;5.40;;;24.10;74.90;;;;;;5133117;27;20039;-75
2023/06/07 21:17:24;;;;;;;12.63;5.43;;;24.10;74.90;;;;;;5133268;27;20055;-76
2023/06/07 21:19:51;;;;;;;10.15;5.57;;;24.10;75.10;;;;;;5133171;27;20484;-77
2023/06/07 21:22:16;;;;;;;15.50;6.15;;;24.10;75.30;;;;;;5133376;27;20027;-80
2023/06/07 21:24:42;;;;;;;9.63;5.20;;;24.00;75.20;;;;;;5133313;27;20043;-79
2023/06/07 21:27:08;;;;;;;10.05;5.35;;;24.00;75.60;;;;;;5133117;27;20049;-78
2023/06/07 21:29:33;;;;;;;10.32;5.40;;;24.00;75.50;;;;;;5133821;27;20042;-79
2023/06/07 21:31:59;;;;;;;11.40;5.05;;;23.90;75.70;;;;;;5133134;27;20050;-76
2023/06/07 21:34:25;;;;;;;8.25;5.40;;;23.90;75.70;;;;;;5132958;27;20086;-78
2023/06/07 21:36:51;;;;;;;9.45;5.35;;;23.90;75.70;;;;;;5132873;27;20104;-77
2023/06/07 21:39:16;;;;;;;10.98;5.65;;;23.90;75.80;;;;;;5132870;27;20050;-76
2023/06/07 21:41:42;;;;;;;9.43;6.05;;;23.90;75.90;;;;;;5133086;27;20110;-76
2023/06/07 21:44:08;;;;;;;10.32;5.80;;;23.90;75.80;;;;;;5123657;27;20088;-76
2023/06/07 21:46:33;;;;;;;10.25;5.80;;;23.90;76.00;;;;;;5118288;27;20030;-78
2023/06/07 21:48:59;;;;;;;13.45;6.15;;;23.90;76.10;;;;;;5112169;28;20039;-76
2023/06/07 21:51:25;;;;;;;10.25;6.25;;;23.90;76.10;;;;;;5112512;28;20035;-76
2023/06/07 21:53:51;;;;;;;15.23;6.00;;;24.00;76.00;;;;;;5112090;28;20039;-77
2023/06/07 21:56:16;;;;;;;10.43;5.95;;;24.00;76.10;;;;;;5111693;28;20046;-78
2023/06/07 21:58:42;;;;;;;12.40;5.88;;;24.00;76.20;;;;;;5111945;28;20027;-76
2023/06/07 22:01:08;;;;;;;11.30;5.75;;;24.00;76.20;;;;;;5115518;28;20036;-80
2023/06/07 22:03:33;;;;;;;8.38;5.50;;;24.00;76.40;;;;;;5124107;28;20027;-80
2023/06/07 22:06:00;;;;;;;8.30;5.30;;;23.90;76.40;;;;;;5132544;27;20035;-80
2023/06/07 22:08:26;;;;;;;12.05;5.40;;;23.90;76.20;;;;;;5132681;28;20035;-79
2023/06/07 22:10:52;;;;;;;9.82;6.18;;;23.90;76.20;;;;;;5132424;28;20085;-79
2023/06/07 22:13:20;;;;;;;12.02;5.95;;;23.90;76.50;;;;;;5115054;28;20131;-77
2023/06/07 22:15:50;;;;;;;9.25;5.85;;;23.90;76.60;;;;;;5112588;28;20131;-80
2023/06/07 22:18:19;;;;;;;10.13;5.75;;;23.80;76.60;;;;;;5112144;28;20032;-79
2023/06/07 22:20:46;;;;;;;10.20;6.20;;;23.80;77.50;;;;;;5112680;28;20100;-79
2023/06/07 22:23:13;;;;;;;11.15;6.13;;;23.80;76.80;;;;;;5112070;28;20032;-79
2023/06/07 22:25:39;;;;;;;11.50;6.47;;;23.80;76.90;;;;;;5111801;28;20040;-78
2023/06/07 22:28:12;;;;;;;10.65;5.93;;;23.80;76.90;;;;;;5111880;28;20506;-78
2023/06/07 22:30:39;;;;;;;10.80;6.18;;;23.80;77.70;;;;;;5111861;28;20490;-78
2023/06/07 22:33:08;;;;;;;13.18;7.38;;;23.80;76.90;;;;;;5129041;28;20034;-79
2023/06/07 22:35:34;;;;;;;12.65;7.18;;;23.80;77.00;;;;;;5132362;28;20118;-79
2023/06/07 22:38:05;;;;;;;11.60;6.88;;;23.70;77.20;;;;;;5132086;28;20305;-79
2023/06/07 22:40:35;;;;;;;12.82;7.13;;;23.70;77.90;;;;;;5132570;28;20484;-78
2023/06/07 22:43:01;;;;;;;13.55;7.75;;;23.60;77.20;;;;;;5133252;28;20027;-78
2023/06/07 22:45:30;;;;;;;11.95;7.05;;;23.60;77.20;;;;;;5135502;28;20046;-80
2023/06/07 22:48:04;;;;;;;11.70;6.97;;;23.60;77.50;;;;;;5140186;28;20037;-79
2023/06/07 22:50:34;;;;;;;9.07;6.20;;;23.60;77.70;;;;;;5143334;28;20118;-78
2023/06/07 22:53:03;;;;;;;11.02;5.90;;;23.60;77.70;;;;;;5136547;28;20047;-78
2023/06/07 22:55:30;;;;;;;9.82;6.50;;;23.60;77.80;;;;;;5133485;28;20043;-78
2023/06/07 22:57:56;;;;;;;9.27;6.45;;;23.60;77.60;;;;;;5134162;28;20119;-79
2023/06/07 23:00:24;;;;;;;13.10;6.63;;;23.50;78.10;;;;;;5134271;28;20440;-78
2023/06/07 23:02:50;;;;;;;11.35;6.43;;;23.40;78.00;;;;;;5133020;28;20028;-79
2023/06/07 23:05:17;;;;;;;10.65;6.63;;;23.40;78.10;;;;;;5132177;28;20540;-78
2023/06/07 23:07:43;;;;;;;10.27;6.50;;;23.30;78.10;;;;;;5132423;28;20165;-79
2023/06/07 23:10:10;;;;;;;11.05;7.03;;;23.30;78.90;;;;;;5132168;28;20085;-79
2023/06/07 23:12:42;;;;;;;10.27;6.57;;;23.30;78.40;;;;;;5132646;28;20030;-78
2023/06/07 23:15:08;;;;;;;11.30;6.63;;;23.30;79.10;;;;;;5132367;28;20031;-78
2023/06/07 23:17:34;;;;;;;9.27;5.75;;;23.30;78.90;;;;;;5132597;27;20023;-80
2023/06/07 23:20:00;;;;;;;11.98;6.38;;;23.20;79.00;;;;;;5135501;27;20118;-77
2023/06/07 23:22:26;;;;;;;11.93;6.32;;;23.20;79.10;;;;;;5135496;27;20038;-78
2023/06/07 23:24:52;;;;;;;9.55;6.35;;;23.20;79.30;;;;;;5136152;27;20134;-78
2023/06/07 23:27:18;;;;;;;10.18;7.07;;;23.20;79.20;;;;;;5136048;27;20051;-78
2023/06/07 23:29:44;;;;;;;9.60;5.90;;;23.20;79.30;;;;;;5135491;27;20106;-78
2023/06/07 23:32:10;;;;;;;9.15;6.20;;;23.10;79.40;;;;;;5136209;27;20027;-78
2023/06/07 23:34:35;;;;;;;10.23;6.32;;;23.10;79.40;;;;;;5116921;27;20349;-78
2023/06/07 23:37:01;;;;;;;11.48;7.10;;;23.10;79.80;;;;;;5135501;27;20095;-78
2023/06/07 23:39:27;;;;;;;10.38;6.95;;;23.00;79.60;;;;;;5135566;27;20031;-80
2023/06/07 23:41:56;;;;;;;12.95;6.72;;;23.00;80.00;;;;;;5117374;27;20525;-72
2023/06/07 23:44:23;;;;;;;9.43;6.05;;;22.90;80.40;;;;;;5134974;27;20468;-78
2023/06/07 23:46:54;;;;;;;12.93;6.97;;;23.00;79.90;;;;;;5135348;27;20023;-80
2023/06/07 23:49:24;;;;;;;11.30;6.95;;;23.00;80.60;;;;;;5135449;27;20035;-78
2023/06/07 23:51:51;;;;;;;9.88;7.05;;;23.00;79.90;;;;;;5134971;27;20468;-77
2023/06/07 23:54:17;;;;;;;11.35;6.43;;;23.00;79.90;;;;;;5137331;27;20035;-78
2023/06/07 23:56:43;;;;;;;8.77;6.32;;;22.90;79.90;;;;;;5137206;27;20024;-80
2023/06/07 23:59:08;;;;;;;9.13;6.50;;;22.90;80.00;;;;;;5134879;27;20046;-78
